createdAt,value
2022-08-03T00:00:49.562Z,16.65
2022-08-03T00:03:34.851Z,16.59
2022-08-03T00:06:05.282Z,16.58
2022-08-03T00:08:37.739Z,16.57
2022-08-03T00:11:10.441Z,16.51
2022-08-03T00:13:41.962Z,16.49
2022-08-03T00:16:12.448Z,16.45
2022-08-03T00:18:43.521Z,16.42
2022-08-03T00:21:13.984Z,16.42
2022-08-03T00:23:51.216Z,16.37
2022-08-03T00:26:22.834Z,16.32
2022-08-03T00:28:54.266Z,16.30
2022-08-03T00:31:35.227Z,16.23
2022-08-03T00:34:24.256Z,16.16
2022-08-03T00:37:10.283Z,16.07
2022-08-03T00:39:41.161Z,16.08
2022-08-03T00:42:11.182Z,16.08
2022-08-03T00:44:45.576Z,16.07
2022-08-03T00:47:15.962Z,16.04
2022-08-03T00:52:59.804Z,15.99
2022-08-03T00:55:29.844Z,15.99
2022-08-03T00:58:00.332Z,15.99
2022-08-03T01:00:31.131Z,15.99
2022-08-03T01:03:01.260Z,15.98
2022-08-03T01:05:31.991Z,15.95
2022-08-03T01:08:10.279Z,15.92
2022-08-03T01:10:51.428Z,15.88
2022-08-03T01:14:01.661Z,15.85
2022-08-03T01:16:36.956Z,15.81
2022-08-03T01:19:32.544Z,15.77
2022-08-03T01:22:33.417Z,15.75
2022-08-03T01:25:16.625Z,15.74
2022-08-03T01:28:00.449Z,15.70
2022-08-03T01:30:35.079Z,15.63
2022-08-03T01:33:08.821Z,15.60
2022-08-03T01:35:45.240Z,15.55
2022-08-03T01:38:20.164Z,15.53
2022-08-03T01:40:52.127Z,15.57
2022-08-03T01:43:59.008Z,15.58
2022-08-03T01:46:22.267Z,15.60
2022-08-03T01:48:53.516Z,15.61
2022-08-03T01:51:25.040Z,15.61
2022-08-03T01:54:16.561Z,15.63
2022-08-03T01:56:47.084Z,15.62
2022-08-03T01:59:19.247Z,15.63
2022-08-03T02:02:15.495Z,15.69
2022-08-03T02:04:44.081Z,15.73
2022-08-03T02:07:15.092Z,15.76
2022-08-03T02:09:51.902Z,15.76
2022-08-03T02:12:24.028Z,15.81
2022-08-03T02:14:54.366Z,15.89
2022-08-03T02:17:38.594Z,15.92
2022-08-03T02:20:13.075Z,15.93
2022-08-03T02:22:44.904Z,15.94
2022-08-03T02:25:17.502Z,16.00
2022-08-03T02:27:54.504Z,16.03
2022-08-03T02:30:27.066Z,16.10
2022-08-03T02:33:00.822Z,16.14
2022-08-03T02:35:32.522Z,16.17
2022-08-03T02:38:05.662Z,16.18
2022-08-03T02:40:36.818Z,16.17
2022-08-03T02:43:12.442Z,16.18
2022-08-03T02:45:47.987Z,16.23
2022-08-03T02:48:24.260Z,16.26
2022-08-03T02:50:56.150Z,16.27
2022-08-03T02:53:27.551Z,16.30
2022-08-03T02:55:59.959Z,16.28
2022-08-03T02:58:31.704Z,16.29
2022-08-03T03:01:02.358Z,16.34
2022-08-03T03:03:37.943Z,16.40
2022-08-03T03:06:29.284Z,16.46
2022-08-03T03:09:01.495Z,16.47
2022-08-03T03:11:32.743Z,16.48
2022-08-03T03:14:03.923Z,16.51
2022-08-03T03:16:35.343Z,16.50
2022-08-03T03:19:16.445Z,16.50
2022-08-03T03:21:47.021Z,16.47
2022-08-03T03:24:18.139Z,16.51
2022-08-03T03:26:48.379Z,16.44
2022-08-03T03:29:19.409Z,16.39
2022-08-03T03:31:49.770Z,16.38
2022-08-03T03:34:21.922Z,16.45
2022-08-03T03:36:53.791Z,16.50
2022-08-03T03:39:23.796Z,16.53
2022-08-03T03:41:54.238Z,16.56
2022-08-03T03:44:24.203Z,16.59
2022-08-03T03:46:54.410Z,16.60
2022-08-03T03:49:26.144Z,16.62
2022-08-03T03:54:06.165Z,16.62
2022-08-03T03:56:36.288Z,16.65
2022-08-03T03:59:06.581Z,16.66
2022-08-03T04:01:36.863Z,16.70
2022-08-03T04:04:20.880Z,16.74
2022-08-03T04:07:08.419Z,16.78
2022-08-03T04:09:59.822Z,16.83
2022-08-03T04:12:49.891Z,16.87
2022-08-03T04:15:24.139Z,16.92
2022-08-03T04:17:58.800Z,16.95
2022-08-03T04:20:33.762Z,17.00
2022-08-03T04:23:04.746Z,17.04
2022-08-03T04:25:46.682Z,17.07
2022-08-03T04:28:31.334Z,17.07
2022-08-03T04:31:02.947Z,17.12
2022-08-03T04:33:36.302Z,17.16
2022-08-03T04:36:12.160Z,17.21
2022-08-03T04:38:50.629Z,17.26
2022-08-03T04:41:25.179Z,17.30
2022-08-03T04:43:58.360Z,17.34
2022-08-03T04:46:31.817Z,17.36
2022-08-03T04:49:02.751Z,17.48
2022-08-03T04:51:35.127Z,17.60
2022-08-03T04:54:05.621Z,17.67
2022-08-03T04:56:37.187Z,17.80
2022-08-03T04:59:07.088Z,18.03
2022-08-03T05:01:37.036Z,18.26
2022-08-03T05:04:07.272Z,18.49
2022-08-03T05:06:37.281Z,18.75
2022-08-03T05:09:45.066Z,19.07
2022-08-03T05:12:10.394Z,19.42
2022-08-03T05:14:41.763Z,19.75
2022-08-03T05:17:12.703Z,20.00
2022-08-03T05:19:46.221Z,20.25
2022-08-03T05:22:16.351Z,20.41
2022-08-03T05:24:46.318Z,20.42
2022-08-03T05:27:19.741Z,20.54
2022-08-03T05:29:51.158Z,20.73
2022-08-03T05:32:21.390Z,20.91
2022-08-03T05:34:51.320Z,21.13
2022-08-03T05:40:30.606Z,21.36
2022-08-03T05:43:02.649Z,21.53
2022-08-03T05:45:32.618Z,21.70
2022-08-03T05:48:02.612Z,21.87
2022-08-03T05:50:32.440Z,22.04
2022-08-03T05:53:02.532Z,22.18
2022-08-03T05:55:32.598Z,22.33
2022-08-03T05:58:05.021Z,22.48
2022-08-03T06:00:35.062Z,22.65
2022-08-03T06:03:05.683Z,22.77
2022-08-03T13:12:08.529Z,26.12
2022-08-03T13:14:38.043Z,26.03
2022-08-03T13:17:08.594Z,26.10
2022-08-03T13:19:39.146Z,26.26
2022-08-03T13:22:16.592Z,26.22
2022-08-03T13:24:48.130Z,26.13
2022-08-03T13:28:01.698Z,26.14
2022-08-03T13:30:11.066Z,26.14
2022-08-03T13:32:41.472Z,25.87
2022-08-03T13:35:12.099Z,25.76
2022-08-03T13:37:47.799Z,25.76
2022-08-03T13:40:18.809Z,25.79
2022-08-03T13:42:54.713Z,25.75
2022-08-03T13:45:24.622Z,25.71
2022-08-03T13:47:54.232Z,25.65
2022-08-03T13:50:23.669Z,25.58
2022-08-03T13:52:53.109Z,25.66
2022-08-03T13:55:22.666Z,25.66
2022-08-03T13:58:11.349Z,25.66
2022-08-03T14:00:41.470Z,25.56
2022-08-03T14:03:14.879Z,25.53
2022-08-03T14:05:45.298Z,25.53
2022-08-03T14:08:15.989Z,25.58
2022-08-03T14:10:47.020Z,25.49
2022-08-03T14:13:19.961Z,25.48
2022-08-03T14:15:51.050Z,25.56
2022-08-03T14:18:28.825Z,25.86
2022-08-03T14:21:06.620Z,25.90
2022-08-03T14:23:38.911Z,25.86
2022-08-03T14:26:09.111Z,25.86
2022-08-03T14:28:40.426Z,25.81
2022-08-03T14:32:09.265Z,25.90
2022-08-03T14:33:59.931Z,25.65
2022-08-03T14:36:29.363Z,25.51
2022-08-03T14:39:01.330Z,25.50
2022-08-03T14:41:31.027Z,25.48
2022-08-03T14:44:02.543Z,25.41
2022-08-03T14:46:33.391Z,25.39
2022-08-03T14:50:31.339Z,25.33
2022-08-03T14:51:53.573Z,25.22
2022-08-03T14:54:24.198Z,25.15
2022-08-03T14:56:53.828Z,25.02
2022-08-03T14:59:24.748Z,24.97
2022-08-03T15:02:06.455Z,24.91
2022-08-03T15:04:38.276Z,24.83
2022-08-03T15:07:08.413Z,24.75
2022-08-03T15:09:38.897Z,24.63
2022-08-03T15:12:09.234Z,24.60
2022-08-03T15:14:40.193Z,24.45
2022-08-03T15:17:09.838Z,24.38
2022-08-03T15:20:03.140Z,24.25
2022-08-03T15:22:34.917Z,24.20
2022-08-03T15:26:03.567Z,24.26
2022-08-03T15:28:03.593Z,24.26
2022-08-03T15:30:37.235Z,24.27
2022-08-03T15:33:07.581Z,24.31
2022-08-03T15:35:37.320Z,24.41
2022-08-03T15:38:09.486Z,24.48
2022-08-03T15:40:39.728Z,24.55
2022-08-03T15:43:09.368Z,24.56
2022-08-03T15:45:42.007Z,24.61
2022-08-03T15:48:11.715Z,24.60
2022-08-03T15:53:56.457Z,24.60
2022-08-03T15:56:27.208Z,24.60
2022-08-03T15:58:59.573Z,24.64
2022-08-03T16:01:41.314Z,24.72
2022-08-03T16:04:10.972Z,24.77
2022-08-03T16:06:40.633Z,24.77
2022-08-03T16:09:23.810Z,24.78
2022-08-03T16:12:01.477Z,24.79
2022-08-03T16:14:34.746Z,24.80
2022-08-03T16:17:07.731Z,24.82
2022-08-03T16:19:37.131Z,24.75
2022-08-03T16:22:08.747Z,24.68
2022-08-03T16:24:39.717Z,24.63
2022-08-03T16:27:37.565Z,24.57
2022-08-03T16:29:59.453Z,24.43
2022-08-03T16:32:29.019Z,24.36
2022-08-03T16:34:58.470Z,24.34
2022-08-03T16:37:50.703Z,24.31
2022-08-03T16:40:20.025Z,24.23
2022-08-03T16:42:49.635Z,24.12
2022-08-03T16:45:19.167Z,24.01
2022-08-03T16:48:01.267Z,23.92
2022-08-03T16:50:34.488Z,23.85
2022-08-03T16:53:09.307Z,23.80
2022-08-03T16:55:48.522Z,23.77
2022-08-03T16:58:34.594Z,23.79
2022-08-03T17:01:21.705Z,23.74
2022-08-03T17:03:57.208Z,23.66
2022-08-03T17:06:34.629Z,23.56
2022-08-03T17:09:09.197Z,23.54
2022-08-03T17:11:44.183Z,23.51
2022-08-03T17:14:21.837Z,23.47
2022-08-03T17:16:54.750Z,23.43
2022-08-03T17:19:26.541Z,23.43
2022-08-03T17:22:04.907Z,23.40
2022-08-03T17:24:41.129Z,23.35
2022-08-03T17:28:41.310Z,23.29
2022-08-03T17:30:10.643Z,23.20
2022-08-03T17:32:56.731Z,23.10
2022-08-03T17:35:34.301Z,22.93
2022-08-03T17:38:11.960Z,22.87
2022-08-03T17:40:50.010Z,22.88
2022-08-03T17:44:13.141Z,22.96
2022-08-03T17:46:13.492Z,22.98
2022-08-03T17:48:43.899Z,22.95
2022-08-03T17:51:21.128Z,22.90
2022-08-03T17:57:22.686Z,22.48
2022-08-03T18:00:28.432Z,22.32
2022-08-03T18:03:16.326Z,22.21
2022-08-03T18:06:11.023Z,22.03
2022-08-03T18:08:46.074Z,21.90
2022-08-03T18:11:21.902Z,21.87
2022-08-03T18:14:06.963Z,21.79
2022-08-03T18:16:55.140Z,21.82
2022-08-03T18:20:02.552Z,21.94
2022-08-03T18:22:16.018Z,22.00
2022-08-03T18:24:47.794Z,21.93
2022-08-03T18:27:19.540Z,21.86
2022-08-03T18:29:49.536Z,21.77
2022-08-03T18:32:20.932Z,21.64
2022-08-03T18:34:59.426Z,21.64
2022-08-03T18:37:28.894Z,21.56
2022-08-03T18:39:59.958Z,21.44
2022-08-03T18:42:32.272Z,21.32
2022-08-03T18:45:56.153Z,21.21
2022-08-03T18:48:08.092Z,21.08
2022-08-03T18:54:10.449Z,20.75
2022-08-03T18:57:03.867Z,20.55
2022-08-03T18:59:42.299Z,20.29
2022-08-03T19:02:31.266Z,20.20
2022-08-03T19:05:09.276Z,20.08
2022-08-03T19:07:40.698Z,19.86
2022-08-03T19:10:15.806Z,19.76
2022-08-03T19:12:54.528Z,19.55
2022-08-03T19:15:36.928Z,19.46
2022-08-03T19:18:13.308Z,19.33
2022-08-03T19:20:47.011Z,19.21
2022-08-03T19:23:18.716Z,19.16
2022-08-03T19:25:51.075Z,19.04
2022-08-03T19:28:29.782Z,18.94
2022-08-03T19:31:06.269Z,18.87
2022-08-03T19:33:57.639Z,18.78
2022-08-03T19:36:29.530Z,18.76
2022-08-03T19:38:59.879Z,18.71
2022-08-03T19:41:42.122Z,18.64
2022-08-03T19:44:20.043Z,18.60
2022-08-03T19:46:58.972Z,18.50
2022-08-03T19:50:04.890Z,18.44
2022-08-03T19:52:28.319Z,18.42
2022-08-03T19:55:04.840Z,18.36
2022-08-03T19:57:37.476Z,18.29
2022-08-03T20:00:13.956Z,18.29
2022-08-03T20:02:44.129Z,18.21
2022-08-03T20:05:15.782Z,18.22
2022-08-03T20:07:47.605Z,18.20
2022-08-03T20:10:20.291Z,18.13
2022-08-03T20:12:51.920Z,18.04
2022-08-03T20:15:31.326Z,17.97
2022-08-03T20:18:01.952Z,17.77
2022-08-03T20:20:34.063Z,17.71
2022-08-03T20:23:08.012Z,17.71
2022-08-03T20:25:48.716Z,17.54
2022-08-03T20:28:50.540Z,17.46
2022-08-03T20:31:32.054Z,17.46
2022-08-03T20:34:05.970Z,17.39
2022-08-03T20:36:35.518Z,17.38
2022-08-03T20:39:07.774Z,17.30
2022-08-03T20:41:38.865Z,17.14
2022-08-03T20:44:09.876Z,17.06
2022-08-03T20:46:53.365Z,17.09
2022-08-03T20:49:29.402Z,17.00
2022-08-03T20:52:18.928Z,16.91
2022-08-03T20:54:49.850Z,16.83
2022-08-03T20:57:20.847Z,16.82
2022-08-03T20:59:52.555Z,16.82
2022-08-03T21:02:30.231Z,16.77
2022-08-03T21:05:03.654Z,16.68
2022-08-03T21:07:45.991Z,16.60
2022-08-03T21:10:37.900Z,16.45
2022-08-03T21:13:05.401Z,22.71
2022-08-03T21:13:18.017Z,16.50
2022-08-03T21:16:02.667Z,16.41
2022-08-03T21:18:47.776Z,16.46
2022-08-03T21:21:20.907Z,16.52
2022-08-03T21:23:54.081Z,16.59
2022-08-03T21:26:26.237Z,16.56
2022-08-03T21:28:57.834Z,16.59
2022-08-03T21:31:28.822Z,16.80
2022-08-03T21:34:02.162Z,17.12
2022-08-03T21:36:34.347Z,17.52
2022-08-03T21:39:08.487Z,17.55
2022-08-03T21:41:40.332Z,17.24
2022-08-03T21:44:10.777Z,17.04
2022-08-03T21:46:43.715Z,16.83
2022-08-03T21:50:02.661Z,16.60
2022-08-03T21:54:03.560Z,16.24
2022-08-03T21:56:39.098Z,16.16
2022-08-03T21:59:11.759Z,16.13
2022-08-03T22:01:45.795Z,16.08
2022-08-03T22:04:50.801Z,16.07
2022-08-03T22:07:11.889Z,16.02
2022-08-03T22:09:51.378Z,16.02
2022-08-03T22:12:24.520Z,15.94
2022-08-03T22:15:01.391Z,15.86
2022-08-03T22:17:53.595Z,15.82
2022-08-03T22:20:23.434Z,15.72
2022-08-03T22:22:57.398Z,15.61
2022-08-03T22:25:31.978Z,15.41
2022-08-03T22:28:04.763Z,15.34
2022-08-03T22:30:34.443Z,14.94
2022-08-03T22:33:08.355Z,14.92
2022-08-03T22:35:47.823Z,14.71
2022-08-03T22:38:19.715Z,14.64
2022-08-03T22:40:52.453Z,14.82
2022-08-03T22:43:26.063Z,14.95
2022-08-03T22:46:10.513Z,14.92
2022-08-03T22:48:43.153Z,14.77
2022-08-03T22:51:13.032Z,14.70
2022-08-03T22:53:42.622Z,14.72
2022-08-03T22:56:14.347Z,14.70
2022-08-03T22:58:43.920Z,14.72
2022-08-03T23:01:21.836Z,14.75
2022-08-03T23:04:02.339Z,14.76
2022-08-03T23:06:37.065Z,14.71
2022-08-03T23:09:12.069Z,14.66
2022-08-03T23:11:45.931Z,14.63
2022-08-03T23:14:18.213Z,14.64
2022-08-03T23:16:49.768Z,14.63
2022-08-03T23:19:25.550Z,14.59
2022-08-03T23:22:02.211Z,14.47
2022-08-03T23:24:37.286Z,14.53
2022-08-03T23:27:10.017Z,14.52
2022-08-03T23:29:44.652Z,14.38
2022-08-03T23:32:15.740Z,14.28
2022-08-03T23:35:04.528Z,14.31
2022-08-03T23:38:10.827Z,14.23
2022-08-03T23:40:29.144Z,14.10
2022-08-03T23:43:00.767Z,14.11
2022-08-03T23:45:30.977Z,14.08
2022-08-03T23:48:00.367Z,14.04
2022-08-03T23:50:37.023Z,14.08
2022-08-03T23:53:17.834Z,14.08
2022-08-03T23:56:02.310Z,14.05
2022-08-03T23:58:51.881Z,14.03
